SBD100 KDEN-LOWW
Flight info
| Callsign | SBD100 |
|---|---|
| Flight time | N/A |
| Altitude | 33000 |
| Route | CHUWY1 CHUWY Q88 VIVID DCT DLH DCT OVORA DCT GRAMP DCT ULDON DCT ROBBE DCT LOMSI/M083F350 DCT 55N050W 57N040W 58N030W 56N020W DCT PIKIL/N0479F350 DCT SOVED DCT MIMKU DCT AMCON/N0474F370 DCT TRN DCT ZOFAT DCT TLA DCT AGPED DCT TOPPA DCT SOGPO DCT DOJOH DCT DODEN DCT NEGIX DCT DINKU DCT AKIMA/N0469F310 DCT MASUR MASUR3W |
| Aircraft | B77W/H-SDE1E2E3FGHIJ2J3J4J5M1RWXY/LB1D1 |
Departure
| Time | N/A |
|---|---|
| Airport | Denver International Airport (KDEN) |
Arrival
| Time | 2026-04-25 17:02 |
|---|---|
| Airport | Vienna International Airport (LOWW) |
| Time | Latitude | Longitude | Altitude | Speed | Heading |
|---|---|---|---|---|---|
| 2026-04-25 15:58 | 51.55086 | 6.81261 | 37133 ft | 507 kts | 141° |
| 2026-04-25 15:59 | 51.49639 | 6.88513 | 37133 ft | 508 kts | 141° |
| 2026-04-25 15:59 | 51.44224 | 6.95698 | 37139 ft | 509 kts | 141° |
| 2026-04-25 16:00 | 51.40616 | 7.00473 | 37133 ft | 509 kts | 141° |
| 2026-04-25 16:00 | 51.33371 | 7.10033 | 37130 ft | 508 kts | 141° |
| 2026-04-25 16:01 | 51.27922 | 7.17194 | 37129 ft | 509 kts | 141° |
| 2026-04-25 16:01 | 51.22492 | 7.24309 | 37125 ft | 509 kts | 141° |
| 2026-04-25 16:02 | 51.17022 | 7.31454 | 37130 ft | 508 kts | 141° |
| 2026-04-25 16:02 | 51.11560 | 7.38565 | 37124 ft | 508 kts | 141° |
| 2026-04-25 16:03 | 51.06092 | 7.45662 | 37127 ft | 509 kts | 141° |
| 2026-04-25 16:03 | 51.00636 | 7.52721 | 37133 ft | 508 kts | 141° |
| 2026-04-25 16:04 | 50.95180 | 7.59758 | 37126 ft | 507 kts | 141° |
| 2026-04-25 16:04 | 50.89739 | 7.66753 | 37125 ft | 508 kts | 142° |
| 2026-04-25 16:05 | 50.85173 | 7.72608 | 37116 ft | 508 kts | 142° |
| 2026-04-25 16:06 | 50.76475 | 7.85062 | 37114 ft | 509 kts | 137° |
| 2026-04-25 16:06 | 50.71362 | 7.92751 | 37121 ft | 508 kts | 137° |
| 2026-04-25 16:07 | 50.66221 | 8.00416 | 37122 ft | 508 kts | 137° |
| 2026-04-25 16:07 | 50.61964 | 8.06725 | 37124 ft | 508 kts | 137° |
| 2026-04-25 16:08 | 50.56575 | 8.16451 | 37114 ft | 508 kts | 128° |
| 2026-04-25 16:08 | 50.52194 | 8.25094 | 37109 ft | 508 kts | 128° |
| 2026-04-25 16:09 | 50.47769 | 8.33781 | 37104 ft | 508 kts | 128° |
| 2026-04-25 16:09 | 50.43367 | 8.42387 | 37101 ft | 508 kts | 128° |
| 2026-04-25 16:10 | 50.38960 | 8.50972 | 37100 ft | 508 kts | 128° |
| 2026-04-25 16:10 | 50.34340 | 8.59305 | 37099 ft | 509 kts | 133° |
| 2026-04-25 16:11 | 50.29480 | 8.67330 | 37092 ft | 509 kts | 134° |
| 2026-04-25 16:11 | 50.24645 | 8.75332 | 37087 ft | 509 kts | 134° |
| 2026-04-25 16:12 | 50.19820 | 8.83324 | 37084 ft | 508 kts | 133° |
| 2026-04-25 16:12 | 50.14977 | 8.91339 | 37085 ft | 508 kts | 133° |
| 2026-04-25 16:13 | 50.10165 | 8.99285 | 37081 ft | 507 kts | 133° |
| 2026-04-25 16:13 | 50.06112 | 9.05963 | 37077 ft | 507 kts | 133° |
| 2026-04-25 16:14 | 50.01288 | 9.13891 | 37082 ft | 507 kts | 133° |
| 2026-04-25 16:14 | 49.96448 | 9.21822 | 37081 ft | 507 kts | 133° |
| 2026-04-25 16:15 | 49.90812 | 9.31028 | 37078 ft | 507 kts | 133° |
| 2026-04-25 16:15 | 49.86761 | 9.37624 | 37073 ft | 508 kts | 133° |
| 2026-04-25 16:16 | 49.81085 | 9.46839 | 37072 ft | 508 kts | 133° |
| 2026-04-25 16:16 | 49.77060 | 9.53353 | 37074 ft | 507 kts | 133° |
| 2026-04-25 16:17 | 49.71375 | 9.62526 | 37077 ft | 507 kts | 133° |
| 2026-04-25 16:17 | 49.67319 | 9.69049 | 37071 ft | 507 kts | 134° |
| 2026-04-25 16:18 | 49.61606 | 9.78209 | 37070 ft | 508 kts | 134° |
| 2026-04-25 16:18 | 49.56722 | 9.86015 | 37070 ft | 508 kts | 134° |
| 2026-04-25 16:19 | 49.51865 | 9.93752 | 37075 ft | 508 kts | 134° |
| 2026-04-25 16:19 | 49.47768 | 10.00262 | 37080 ft | 507 kts | 134° |
| 2026-04-25 16:20 | 49.39616 | 10.13165 | 37091 ft | 507 kts | 134° |
| 2026-04-25 16:21 | 49.32265 | 10.24743 | 37088 ft | 506 kts | 134° |
| 2026-04-25 16:21 | 49.27371 | 10.32421 | 37086 ft | 507 kts | 134° |
| 2026-04-25 16:22 | 49.23670 | 10.39344 | 37086 ft | 507 kts | 121° |
| 2026-04-25 16:22 | 49.21553 | 10.45706 | 37093 ft | 504 kts | 110° |
| 2026-04-25 16:22 | 49.20249 | 10.50650 | 37091 ft | 503 kts | 110° |
| 2026-04-25 16:23 | 49.17659 | 10.60546 | 37091 ft | 502 kts | 110° |
| 2026-04-25 16:23 | 49.15045 | 10.70419 | 37089 ft | 503 kts | 111° |
| 2026-04-25 16:24 | 49.12430 | 10.80216 | 37091 ft | 503 kts | 111° |
| 2026-04-25 16:24 | 49.10213 | 10.88471 | 37095 ft | 503 kts | 111° |
| 2026-04-25 16:25 | 49.07114 | 10.99946 | 37085 ft | 503 kts | 111° |
| 2026-04-25 16:25 | 49.04455 | 11.09741 | 37086 ft | 504 kts | 111° |
| 2026-04-25 16:26 | 49.02228 | 11.17907 | 37083 ft | 503 kts | 111° |
| 2026-04-25 16:26 | 48.99088 | 11.29377 | 37084 ft | 504 kts | 111° |
| 2026-04-25 16:27 | 48.96395 | 11.39165 | 37082 ft | 504 kts | 111° |
| 2026-04-25 16:27 | 48.93687 | 11.48970 | 37076 ft | 504 kts | 111° |
| 2026-04-25 16:28 | 48.90984 | 11.58713 | 36865 ft | 505 kts | 111° |
| 2026-04-25 16:28 | 48.90073 | 11.61987 | 37061 ft | 506 kts | 111° |
| 2026-04-25 16:28 | 48.88705 | 11.66898 | 37059 ft | 508 kts | 112° |
| 2026-04-25 16:29 | 48.85498 | 11.78368 | 37052 ft | 506 kts | 112° |
| 2026-04-25 16:29 | 48.83221 | 11.86477 | 36909 ft | 507 kts | 112° |
| 2026-04-25 16:29 | 48.81372 | 11.93041 | 37071 ft | 507 kts | 112° |
| 2026-04-25 16:30 | 48.80452 | 11.96303 | 37046 ft | 509 kts | 112° |
| 2026-04-25 16:30 | 48.77208 | 12.07761 | 37052 ft | 508 kts | 112° |
| 2026-04-25 16:31 | 48.74440 | 12.17495 | 37047 ft | 508 kts | 112° |
| 2026-04-25 16:31 | 48.73035 | 12.22424 | 37371 ft | 508 kts | 112° |
| 2026-04-25 16:31 | 48.72115 | 12.25643 | 36881 ft | 509 kts | 112° |
| 2026-04-25 16:31 | 48.70262 | 12.32113 | 37296 ft | 507 kts | 112° |
| 2026-04-25 16:32 | 48.68861 | 12.36999 | 37062 ft | 508 kts | 112° |
| 2026-04-25 16:32 | 48.66518 | 12.45143 | 37053 ft | 506 kts | 112° |
| 2026-04-25 16:33 | 48.63253 | 12.56444 | 37055 ft | 506 kts | 112° |
| 2026-04-25 16:33 | 48.60896 | 12.64569 | 37054 ft | 507 kts | 112° |
| 2026-04-25 16:34 | 48.57615 | 12.75835 | 37049 ft | 507 kts | 114° |
| 2026-04-25 16:34 | 48.55248 | 12.83929 | 37050 ft | 507 kts | 114° |
| 2026-04-25 16:35 | 48.51928 | 12.95242 | 37051 ft | 507 kts | 114° |
| 2026-04-25 16:35 | 48.49559 | 13.03280 | 37048 ft | 507 kts | 114° |
| 2026-04-25 16:36 | 48.46222 | 13.14558 | 37047 ft | 509 kts | 114° |
| 2026-04-25 16:36 | 48.43360 | 13.24247 | 37046 ft | 507 kts | 111° |
| 2026-04-25 16:37 | 48.41701 | 13.34441 | 37045 ft | 507 kts | 93° |
| 2026-04-25 16:37 | 48.41822 | 13.43222 | 37053 ft | 504 kts | 82° |
| 2026-04-25 16:38 | 48.42517 | 13.53654 | 37003 ft | 500 kts | 82° |
| 2026-04-25 16:38 | 48.42954 | 13.60564 | 35966 ft | 502 kts | 82° |
| 2026-04-25 16:38 | 48.43167 | 13.64032 | 35276 ft | 505 kts | 82° |
| 2026-04-25 16:38 | 48.43586 | 13.71064 | 34090 ft | 508 kts | 83° |
| 2026-04-25 16:39 | 48.43891 | 13.76315 | 33295 ft | 509 kts | 84° |
| 2026-04-25 16:39 | 48.44093 | 13.79850 | 32725 ft | 510 kts | 84° |
| 2026-04-25 16:39 | 48.44391 | 13.85143 | 31822 ft | 513 kts | 84° |
| 2026-04-25 16:39 | 48.44788 | 13.92307 | 30641 ft | 515 kts | 84° |
| 2026-04-25 16:40 | 48.44979 | 13.95799 | 30299 ft | 511 kts | 84° |
| 2026-04-25 16:40 | 48.45358 | 14.02815 | 29653 ft | 503 kts | 84° |
| 2026-04-25 16:40 | 48.45638 | 14.08067 | 29097 ft | 498 kts | 84° |
| 2026-04-25 16:40 | 48.45910 | 14.13209 | 28526 ft | 494 kts | 84° |
| 2026-04-25 16:41 | 48.46178 | 14.18343 | 27954 ft | 491 kts | 84° |
| 2026-04-25 16:41 | 48.46265 | 14.20013 | 27766 ft | 489 kts | 84° |
| 2026-04-25 16:41 | 48.46884 | 14.33485 | 26348 ft | 477 kts | 90° |
| 2026-04-25 16:42 | 48.46586 | 14.38387 | 26315 ft | 471 kts | 99° |
| 2026-04-25 16:42 | 48.45780 | 14.43191 | 26306 ft | 483 kts | 109° |
| 2026-04-25 16:42 | 48.44614 | 14.47924 | 26160 ft | 482 kts | 111° |
| 2026-04-25 16:42 | 48.43822 | 14.51009 | 25821 ft | 481 kts | 111° |
| 2026-04-25 16:43 | 48.42209 | 14.57255 | 24904 ft | 480 kts | 111° |
| 2026-04-25 16:43 | 48.41403 | 14.60363 | 24463 ft | 478 kts | 111° |
| 2026-04-25 16:43 | 48.40194 | 14.65026 | 23874 ft | 474 kts | 112° |
| 2026-04-25 16:43 | 48.39016 | 14.69560 | 23289 ft | 471 kts | 112° |
| 2026-04-25 16:44 | 48.37833 | 14.74100 | 22739 ft | 466 kts | 112° |
| 2026-04-25 16:44 | 48.36659 | 14.78599 | 22192 ft | 461 kts | 112° |
| 2026-04-25 16:44 | 48.35500 | 14.83032 | 21619 ft | 457 kts | 112° |
| 2026-04-25 16:44 | 48.34333 | 14.87483 | 21037 ft | 454 kts | 112° |
| 2026-04-25 16:45 | 48.33185 | 14.91859 | 20498 ft | 449 kts | 112° |
| 2026-04-25 16:45 | 48.32046 | 14.96189 | 19936 ft | 446 kts | 112° |
| 2026-04-25 16:45 | 48.30913 | 15.00490 | 19370 ft | 442 kts | 111° |
| 2026-04-25 16:45 | 48.29419 | 15.06146 | 18641 ft | 437 kts | 111° |
| 2026-04-25 16:46 | 48.28307 | 15.10350 | 18121 ft | 433 kts | 111° |
| 2026-04-25 16:46 | 48.27200 | 15.14524 | 17569 ft | 430 kts | 111° |
| 2026-04-25 16:46 | 48.26479 | 15.17239 | 17232 ft | 427 kts | 111° |
| 2026-04-25 16:46 | 48.25749 | 15.19986 | 17055 ft | 421 kts | 111° |
| 2026-04-25 16:47 | 48.23962 | 15.26696 | 16254 ft | 418 kts | 111° |
| 2026-04-25 16:47 | 48.23246 | 15.29378 | 15849 ft | 419 kts | 111° |
| 2026-04-25 16:47 | 48.22166 | 15.33419 | 15347 ft | 416 kts | 111° |
| 2026-04-25 16:47 | 48.20742 | 15.38738 | 14736 ft | 411 kts | 111° |
| 2026-04-25 16:48 | 48.19681 | 15.42693 | 14272 ft | 408 kts | 111° |
| 2026-04-25 16:48 | 48.18989 | 15.45268 | 13952 ft | 406 kts | 111° |
| 2026-04-25 16:48 | 48.17938 | 15.49173 | 13463 ft | 403 kts | 111° |
| 2026-04-25 16:48 | 48.16888 | 15.53067 | 12951 ft | 399 kts | 111° |
| 2026-04-25 16:49 | 48.15522 | 15.58126 | 12246 ft | 396 kts | 111° |
| 2026-04-25 16:49 | 48.14495 | 15.61925 | 11759 ft | 392 kts | 111° |
| 2026-04-25 16:49 | 48.13823 | 15.64404 | 11426 ft | 390 kts | 111° |
| 2026-04-25 16:49 | 48.12471 | 15.69386 | 10702 ft | 387 kts | 112° |
| 2026-04-25 16:50 | 48.11463 | 15.73094 | 10181 ft | 384 kts | 112° |
| 2026-04-25 16:50 | 48.10451 | 15.76811 | 9649 ft | 382 kts | 112° |
| 2026-04-25 16:50 | 48.09472 | 15.80402 | 9170 ft | 379 kts | 112° |
| 2026-04-25 16:50 | 48.08797 | 15.82871 | 8831 ft | 377 kts | 112° |
| 2026-04-25 16:51 | 48.07491 | 15.87648 | 8187 ft | 373 kts | 111° |
| 2026-04-25 16:51 | 48.06536 | 15.91133 | 8028 ft | 354 kts | 111° |
| 2026-04-25 16:51 | 48.05928 | 15.93347 | 8022 ft | 339 kts | 111° |
| 2026-04-25 16:51 | 48.05336 | 15.95502 | 8041 ft | 325 kts | 111° |
| 2026-04-25 16:52 | 48.03982 | 16.00421 | 8005 ft | 294 kts | 112° |
| 2026-04-25 16:52 | 48.03212 | 16.03218 | 7784 ft | 287 kts | 111° |
| 2026-04-25 16:52 | 48.02712 | 16.05031 | 7575 ft | 286 kts | 111° |
| 2026-04-25 16:52 | 48.01693 | 16.08725 | 7051 ft | 287 kts | 111° |
| 2026-04-25 16:53 | 48.00187 | 16.14168 | 6397 ft | 283 kts | 111° |
| 2026-04-25 16:53 | 47.99685 | 16.15980 | 6191 ft | 281 kts | 111° |
| 2026-04-25 16:53 | 47.98935 | 16.18685 | 5823 ft | 281 kts | 111° |
| 2026-04-25 16:54 | 47.98191 | 16.21371 | 5451 ft | 282 kts | 111° |
| 2026-04-25 16:54 | 47.97387 | 16.25038 | 4950 ft | 282 kts | 105° |
| 2026-04-25 16:54 | 47.97016 | 16.26898 | 4737 ft | 281 kts | 105° |
| 2026-04-25 16:54 | 47.96466 | 16.29686 | 4409 ft | 280 kts | 105° |
| 2026-04-25 16:55 | 47.95925 | 16.32436 | 4085 ft | 279 kts | 105° |
| 2026-04-25 16:55 | 47.95386 | 16.35222 | 3817 ft | 276 kts | 105° |
| 2026-04-25 16:55 | 47.94859 | 16.37957 | 3458 ft | 277 kts | 105° |
| 2026-04-25 16:55 | 47.94152 | 16.41625 | 3070 ft | 275 kts | 105° |
| 2026-04-25 16:56 | 47.93798 | 16.43444 | 3031 ft | 273 kts | 105° |
| 2026-04-25 16:56 | 47.93086 | 16.47096 | 3017 ft | 276 kts | 105° |
| 2026-04-25 16:56 | 47.92728 | 16.48914 | 3016 ft | 275 kts | 105° |
| 2026-04-25 16:56 | 47.92009 | 16.52547 | 3013 ft | 275 kts | 104° |
| 2026-04-25 16:57 | 47.91692 | 16.54379 | 3000 ft | 275 kts | 96° |
| 2026-04-25 16:57 | 47.91692 | 16.56239 | 2992 ft | 269 kts | 78° |
| 2026-04-25 16:57 | 47.92142 | 16.59806 | 3001 ft | 258 kts | 75° |
| 2026-04-25 16:57 | 47.92745 | 16.63217 | 2978 ft | 255 kts | 58° |
| 2026-04-25 16:58 | 47.93897 | 16.65167 | 2977 ft | 248 kts | 31° |
| 2026-04-25 16:58 | 47.95425 | 16.66048 | 2966 ft | 233 kts | 0° |
| 2026-04-25 16:58 | 47.96967 | 16.65613 | 2967 ft | 225 kts | 331° |
| 2026-04-25 16:58 | 47.97791 | 16.64705 | 2803 ft | 221 kts | 315° |
| 2026-04-25 16:59 | 47.99353 | 16.63081 | 2469 ft | 199 kts | 336° |
| 2026-04-25 16:59 | 48.00226 | 16.62717 | 2305 ft | 190 kts | 342° |
| 2026-04-25 16:59 | 48.01438 | 16.62269 | 2075 ft | 173 kts | 340° |
| 2026-04-25 16:59 | 48.02918 | 16.61632 | 1790 ft | 156 kts | 339° |
| 2026-04-25 17:00 | 48.03940 | 16.61237 | 1556 ft | 151 kts | 341° |
| 2026-04-25 17:00 | 48.04618 | 16.60997 | 1381 ft | 153 kts | 340° |
| 2026-04-25 17:00 | 48.05645 | 16.60544 | 1221 ft | 154 kts | 338° |
| 2026-04-25 17:00 | 48.07019 | 16.59905 | 988 ft | 156 kts | 340° |
| 2026-04-25 17:01 | 48.07715 | 16.59627 | 868 ft | 154 kts | 340° |
| 2026-04-25 17:01 | 48.08734 | 16.59192 | 661 ft | 153 kts | 341° |
| 2026-04-25 17:01 | 48.09713 | 16.58772 | 604 ft | 132 kts | 345° |
| 2026-04-25 17:01 | 48.10662 | 16.58376 | 605 ft | 78 kts | 344° |
| 2026-04-25 17:02 | 48.10884 | 16.58284 | 602 ft | 28 kts | 343° |
| 2026-04-25 17:02 | 48.11028 | 16.58094 | 602 ft | 27 kts | 301° |
| 2026-04-25 17:02 | 48.11114 | 16.57850 | 602 ft | 25 kts | 296° |
| 2026-04-25 17:02 | 48.11167 | 16.57682 | 602 ft | 27 kts | 295° |
| 2026-04-25 17:03 | 48.11277 | 16.57351 | 608 ft | 26 kts | 297° |
| 2026-04-25 17:03 | 48.11354 | 16.57109 | 611 ft | 26 kts | 295° |
| 2026-04-25 17:03 | 48.11435 | 16.56861 | 611 ft | 25 kts | 296° |
| 2026-04-25 17:03 | 48.11511 | 16.56630 | 608 ft | 23 kts | 296° |
| 2026-04-25 17:04 | 48.11582 | 16.56412 | 602 ft | 23 kts | 296° |
| 2026-04-25 17:04 | 48.11677 | 16.56121 | 595 ft | 21 kts | 296° |
| 2026-04-25 17:04 | 48.11721 | 16.55987 | 592 ft | 20 kts | 296° |
| 2026-04-25 17:04 | 48.11767 | 16.55847 | 590 ft | 5 kts | 306° |
| 2026-04-25 17:05 | 48.11783 | 16.55850 | 590 ft | 2 kts | 46° |
| 2026-04-25 17:05 | 48.11804 | 16.55968 | 592 ft | 1 kts | 79° |
| 2026-04-25 17:05 | 48.11805 | 16.55975 | 592 ft | 0 kts | 79° |
| 2026-04-25 17:06 | 48.11805 | 16.55976 | 592 ft | 0 kts | 79° |